createdAt,value
2022-08-05T00:00:18.369Z,10.00
2022-08-05T00:02:50.406Z,11.27
2022-08-05T00:06:02.523Z,13.20
2022-08-05T00:08:30.840Z,10.67
2022-08-05T00:10:57.313Z,11.50
2022-08-05T00:13:39.667Z,10.90
2022-08-05T00:16:12.558Z,11.63
2022-08-05T00:18:44.267Z,10.87
2022-08-05T00:21:14.366Z,11.43
2022-08-05T00:23:45.850Z,11.50
2022-08-05T00:26:22.165Z,11.23
2022-08-05T00:28:49.682Z,10.80
2022-08-05T00:31:16.741Z,12.43
2022-08-05T00:34:56.863Z,12.90
2022-08-05T00:37:09.902Z,12.10
2022-08-05T00:39:41.558Z,11.60
2022-08-05T00:42:11.672Z,12.37
2022-08-05T00:44:58.617Z,11.70
2022-08-05T00:47:26.527Z,12.17
2022-08-05T00:50:13.455Z,12.10
2022-08-05T00:52:40.540Z,10.63
2022-08-05T00:55:07.873Z,12.40
2022-08-05T00:57:38.420Z,10.90
2022-08-05T01:00:22.048Z,11.27
2022-08-05T01:02:53.151Z,10.10
2022-08-05T01:05:20.182Z,12.00
2022-08-05T01:08:39.950Z,10.80
2022-08-05T01:10:51.602Z,12.27
2022-08-05T01:13:58.288Z,12.50
2022-08-05T01:16:44.463Z,11.70
2022-08-05T01:19:36.524Z,13.23
2022-08-05T01:22:41.643Z,13.80
2022-08-05T01:25:41.987Z,14.27
2022-08-05T01:28:52.293Z,12.90
2022-08-05T01:31:44.863Z,12.63
2022-08-05T01:34:48.312Z,13.80
2022-08-05T01:37:29.232Z,13.40
2022-08-05T01:40:01.977Z,15.17
2022-08-05T01:42:31.279Z,14.80
2022-08-05T01:45:02.127Z,13.70
2022-08-05T01:47:39.655Z,14.37
2022-08-05T01:50:29.778Z,13.47
2022-08-05T01:53:02.535Z,13.97
2022-08-05T01:55:36.168Z,13.83
2022-08-05T01:58:12.869Z,14.73
2022-08-05T02:00:57.984Z,14.07
2022-08-05T02:03:31.983Z,14.97
2022-08-05T02:06:03.769Z,14.13
2022-08-05T02:08:58.444Z,14.23
2022-08-05T02:11:48.086Z,14.30
2022-08-05T02:14:33.717Z,13.53
2022-08-05T02:18:28.259Z,14.90
2022-08-05T02:20:22.924Z,13.33
2022-08-05T02:23:08.770Z,14.40
2022-08-05T02:25:49.529Z,14.60
2022-08-05T02:28:28.377Z,13.90
2022-08-05T02:31:08.265Z,15.50
2022-08-05T02:33:57.251Z,14.90
2022-08-05T02:36:31.348Z,13.40
2022-08-05T02:39:00.438Z,15.40
2022-08-05T02:41:43.344Z,14.07
2022-08-05T02:44:17.959Z,14.47
2022-08-05T02:46:58.880Z,15.30
2022-08-05T02:49:35.824Z,13.20
2022-08-05T02:52:13.608Z,14.13
2022-08-05T02:54:56.989Z,13.17
2022-08-05T02:58:11.545Z,12.30
2022-08-05T03:00:14.809Z,13.77
2022-08-05T03:02:44.702Z,12.87
2022-08-05T03:05:12.512Z,12.70
2022-08-05T03:08:00.881Z,13.43
2022-08-05T03:10:28.889Z,12.43
2022-08-05T03:15:23.738Z,12.80
2022-08-05T03:17:57.529Z,12.30
2022-08-05T03:20:25.153Z,11.33
2022-08-05T03:22:57.329Z,12.13
2022-08-05T03:25:32.860Z,11.40
2022-08-05T03:28:14.430Z,11.67
2022-08-05T03:30:47.943Z,11.30
2022-08-05T03:33:15.050Z,10.83
2022-08-05T03:35:42.354Z,11.60
2022-08-05T03:38:12.681Z,11.40
2022-08-05T03:40:45.158Z,11.30
2022-08-05T03:44:08.790Z,10.83
2022-08-05T03:46:04.363Z,10.80
2022-08-05T03:48:35.594Z,10.20
2022-08-05T03:52:37.773Z,10.53
2022-08-05T03:55:53.789Z,9.67
2022-08-05T03:57:42.316Z,8.83
2022-08-05T04:00:16.187Z,9.13
2022-08-05T04:02:58.718Z,9.20
2022-08-05T04:05:34.250Z,9.77
2022-08-05T04:08:14.708Z,8.40
2022-08-05T04:10:57.236Z,9.83
2022-08-05T04:13:25.677Z,9.63
2022-08-05T04:16:14.316Z,9.80
2022-08-05T04:18:41.480Z,9.37
2022-08-05T04:21:11.082Z,10.00
2022-08-05T04:24:04.817Z,10.75
2022-08-05T04:26:26.270Z,10.70
2022-08-05T04:29:00.695Z,9.53
2022-08-05T04:31:38.509Z,9.27
2022-08-05T04:34:31.602Z,9.77
2022-08-05T04:36:52.872Z,9.40
2022-08-05T04:39:20.894Z,9.73
2022-08-05T04:41:51.221Z,9.37
2022-08-05T04:44:21.509Z,9.30
2022-08-05T04:46:58.712Z,9.17
2022-08-05T04:49:38.911Z,9.53
2022-08-05T04:52:13.858Z,9.50
2022-08-05T04:54:42.235Z,9.10
2022-08-05T04:57:09.169Z,8.97
2022-08-05T04:59:38.772Z,9.17
2022-08-05T05:02:37.197Z,9.77
2022-08-05T05:05:02.743Z,10.30
2022-08-05T05:07:32.803Z,10.00
2022-08-05T05:10:05.385Z,9.47
2022-08-05T05:12:33.418Z,8.97
2022-08-05T05:15:03.965Z,8.80
2022-08-05T05:17:56.881Z,9.50
2022-08-05T05:20:28.821Z,9.63
2022-08-05T05:23:08.267Z,8.17
2022-08-05T05:25:47.859Z,9.77
2022-08-05T05:28:14.841Z,10.23
2022-08-05T05:30:42.698Z,8.83
2022-08-05T05:33:17.369Z,8.97
2022-08-05T05:35:46.623Z,10.07
2022-08-05T05:38:14.240Z,9.47
2022-08-05T05:40:49.543Z,10.27
2022-08-05T05:43:27.472Z,10.13
2022-08-05T05:46:12.110Z,9.50
2022-08-05T05:48:43.836Z,10.00
2022-08-05T05:51:15.273Z,10.27
2022-08-05T05:53:57.902Z,10.57
2022-08-05T05:56:31.720Z,10.70
2022-08-05T05:59:03.604Z,9.20
2022-08-05T06:01:37.349Z,10.23
2022-08-05T06:04:14.570Z,10.43
2022-08-05T06:06:47.461Z,9.93
2022-08-05T06:09:25.619Z,10.43
2022-08-05T06:12:04.064Z,10.47
2022-08-05T06:14:31.761Z,12.00
2022-08-05T06:17:02.190Z,11.60
2022-08-05T06:19:57.140Z,11.33
2022-08-05T06:22:34.018Z,11.57
2022-08-05T06:25:24.282Z,11.83
2022-08-05T06:28:10.685Z,12.47
2022-08-05T06:30:38.739Z,12.90
2022-08-05T06:33:05.629Z,11.70
2022-08-05T06:36:04.191Z,11.87
2022-08-05T06:38:36.309Z,11.43
2022-08-05T06:41:05.225Z,12.70
2022-08-05T06:43:57.661Z,10.70
2022-08-05T06:46:23.518Z,12.83
2022-08-05T06:48:59.170Z,11.83
2022-08-05T06:51:29.453Z,11.60
2022-08-05T06:53:59.043Z,12.23
2022-08-05T06:56:27.151Z,11.07
2022-08-05T06:58:55.416Z,12.10
2022-08-05T07:01:23.443Z,11.90
2022-08-05T07:03:54.726Z,11.80
2022-08-05T07:06:22.759Z,11.77
2022-08-05T07:08:51.848Z,10.67
2022-08-05T07:11:25.189Z,10.47
2022-08-05T07:14:20.135Z,10.60
2022-08-05T07:18:08.130Z,10.43
2022-08-05T07:20:22.984Z,9.83
2022-08-05T07:22:27.738Z,10.60
2022-08-05T07:25:24.010Z,9.57
2022-08-05T07:27:58.240Z,8.90
2022-08-05T07:30:39.957Z,10.20
2022-08-05T07:33:16.519Z,10.33
2022-08-05T07:36:05.229Z,9.80
2022-08-05T07:38:35.672Z,9.57
2022-08-05T07:42:13.897Z,10.03
2022-08-05T07:44:14.132Z,9.00
2022-08-05T07:46:41.935Z,9.70
2022-08-05T07:49:16.555Z,9.77
2022-08-05T07:51:53.038Z,9.17
2022-08-05T07:54:30.773Z,9.33
2022-08-05T07:57:02.086Z,10.30
2022-08-05T07:59:42.123Z,10.03
2022-08-05T08:02:16.675Z,10.70
2022-08-05T08:04:49.260Z,11.97
2022-08-05T08:07:22.031Z,11.33
2022-08-05T08:09:52.581Z,11.53
2022-08-05T08:12:37.517Z,9.97
2022-08-05T08:15:15.124Z,11.60
2022-08-05T08:17:52.483Z,11.40
2022-08-05T08:21:00.108Z,11.40
2022-08-05T08:24:00.156Z,11.00
2022-08-05T08:26:00.698Z,9.73
2022-08-05T08:28:36.586Z,13.33
2022-08-05T08:31:10.058Z,12.73
2022-08-05T08:33:45.278Z,11.90
2022-08-05T08:36:39.009Z,12.70
2022-08-05T08:38:59.249Z,12.57
2022-08-05T08:41:50.798Z,13.30
2022-08-05T08:45:20.397Z,12.60
2022-08-05T08:47:47.261Z,12.83
2022-08-05T08:50:22.299Z,12.90
2022-08-05T08:52:54.058Z,14.53
2022-08-05T08:56:01.792Z,15.57
2022-08-05T08:58:12.992Z,15.30
2022-08-05T09:00:42.584Z,13.57
2022-08-05T09:03:11.623Z,13.33
2022-08-05T09:06:08.530Z,13.30
2022-08-05T09:08:26.651Z,12.37
2022-08-05T09:10:54.672Z,13.07
2022-08-05T09:13:23.585Z,13.13
2022-08-05T09:15:51.611Z,12.80
2022-08-05T09:18:18.793Z,12.40
2022-08-05T09:20:47.099Z,11.80
2022-08-05T09:23:21.575Z,7.73
2022-08-05T09:26:08.520Z,6.70
2022-08-05T09:28:39.044Z,6.50
2022-08-05T09:31:18.302Z,7.57
2022-08-05T09:34:11.532Z,6.20
2022-08-05T09:36:55.923Z,5.97
2022-08-05T09:39:39.425Z,5.80
2022-08-05T09:42:24.002Z,5.47
2022-08-05T09:46:04.807Z,6.17
2022-08-05T09:48:01.421Z,7.03
2022-08-05T09:50:44.024Z,8.60
2022-08-05T09:53:22.807Z,8.43
2022-08-05T09:56:04.522Z,7.90
2022-08-05T09:58:32.392Z,6.80
2022-08-05T10:01:14.724Z,6.43
2022-08-05T10:04:12.988Z,7.03
2022-08-05T10:06:55.076Z,6.20
2022-08-05T10:09:27.947Z,5.60
2022-08-05T10:12:30.153Z,6.73
2022-08-05T10:15:16.972Z,6.50
2022-08-05T10:17:54.399Z,6.60
2022-08-05T10:20:25.149Z,6.40
2022-08-05T10:22:52.701Z,6.57
2022-08-05T10:25:19.762Z,7.43
2022-08-05T10:28:13.635Z,6.10
2022-08-05T10:31:20.685Z,6.47
2022-08-05T10:33:28.840Z,7.20
2022-08-05T10:35:59.794Z,6.97
2022-08-05T10:38:29.641Z,13.00
2022-08-05T10:41:12.435Z,16.63
2022-08-05T10:44:02.383Z,6.93
2022-08-05T10:46:54.177Z,7.10
2022-08-05T10:49:27.395Z,7.00
2022-08-05T10:52:03.288Z,8.00
2022-08-05T10:55:07.112Z,11.27
2022-08-05T10:57:34.525Z,8.50
2022-08-05T11:00:23.185Z,9.00
2022-08-05T11:03:23.041Z,8.90
2022-08-05T11:06:15.381Z,8.67
2022-08-05T11:09:16.761Z,9.17
2022-08-05T11:11:53.243Z,6.97
2022-08-05T11:14:57.541Z,8.37
2022-08-05T11:18:00.215Z,8.53
2022-08-05T11:20:46.251Z,6.70
2022-08-05T11:24:04.589Z,8.43
2022-08-05T11:26:43.297Z,8.50
2022-08-05T11:29:42.636Z,7.80
2022-08-05T11:32:30.196Z,7.50
2022-08-05T11:34:57.670Z,8.27
2022-08-05T11:38:28.240Z,6.30
2022-08-05T11:41:34.367Z,4.00
2022-08-05T11:44:08.395Z,3.60
2022-08-05T11:47:09.970Z,3.67
2022-08-05T11:49:38.647Z,3.70
2022-08-05T11:52:11.755Z,4.17
2022-08-05T11:54:40.361Z,4.27
2022-08-05T11:57:24.284Z,4.90
2022-08-05T11:59:53.547Z,4.80
2022-08-05T12:02:33.132Z,5.47
2022-08-05T12:05:07.683Z,5.80
2022-08-05T12:08:07.485Z,4.83
2022-08-05T12:10:43.710Z,5.40
2022-08-05T12:13:27.755Z,4.70
2022-08-05T12:16:15.730Z,4.70
2022-08-05T12:18:52.186Z,4.90
2022-08-05T12:21:30.534Z,5.00
2022-08-05T12:24:08.918Z,5.80
2022-08-05T12:26:49.964Z,6.13
2022-08-05T12:29:23.705Z,5.57
2022-08-05T12:31:54.590Z,5.03
2022-08-05T12:34:28.234Z,4.80
2022-08-05T12:36:58.197Z,4.70
2022-08-05T12:39:28.087Z,4.73
2022-08-05T12:42:01.522Z,5.70
2022-08-05T12:44:33.597Z,4.90
2022-08-05T12:47:02.424Z,5.07
2022-08-05T12:50:02.371Z,5.03
2022-08-05T12:52:38.568Z,4.30
2022-08-05T12:55:28.551Z,4.30
2022-08-05T12:58:48.593Z,3.50
2022-08-05T13:02:01.241Z,3.60
2022-08-05T13:03:43.095Z,2.90
2022-08-05T13:06:17.282Z,2.53
2022-08-05T13:08:52.091Z,3.80
2022-08-05T13:12:02.258Z,3.80
2022-08-05T13:14:24.882Z,3.20
2022-08-05T13:17:07.622Z,3.37
2022-08-05T13:19:51.590Z,3.97
2022-08-05T13:22:27.790Z,3.80
2022-08-05T13:25:05.871Z,4.17
2022-08-05T13:27:41.545Z,3.77
2022-08-05T13:30:32.680Z,4.60
2022-08-05T13:33:01.226Z,4.00
2022-08-05T13:35:42.657Z,4.80
2022-08-05T13:38:19.993Z,4.30
2022-08-05T13:40:55.537Z,5.43
2022-08-05T13:43:22.492Z,5.10
2022-08-05T13:45:50.895Z,5.67
2022-08-05T13:48:58.742Z,5.87
2022-08-05T13:51:09.873Z,3.97
2022-08-05T13:53:47.687Z,4.93
2022-08-05T13:56:18.371Z,5.57
2022-08-05T13:58:53.499Z,4.80
2022-08-05T14:01:25.875Z,3.63
2022-08-05T14:04:26.456Z,4.40
2022-08-05T14:07:11.989Z,3.90
2022-08-05T14:09:44.396Z,3.60
2022-08-05T14:12:18.317Z,4.00
2022-08-05T14:15:00.051Z,4.73
2022-08-05T14:17:28.229Z,3.97
2022-08-05T14:19:59.590Z,3.20
2022-08-05T14:22:30.539Z,3.33
2022-08-05T14:25:02.544Z,3.60
2022-08-05T14:27:33.486Z,3.70
2022-08-05T14:30:01.272Z,3.23
2022-08-05T14:32:35.514Z,3.80
2022-08-05T14:35:06.923Z,3.00
2022-08-05T14:37:48.006Z,3.40
2022-08-05T14:40:16.810Z,3.50
2022-08-05T14:42:44.179Z,3.47
2022-08-05T14:45:11.562Z,3.67
2022-08-05T14:48:04.093Z,3.27
2022-08-05T14:50:25.521Z,3.03
2022-08-05T14:52:57.539Z,3.87
2022-08-05T14:55:38.671Z,3.30
2022-08-05T14:58:11.565Z,2.73
2022-08-05T15:00:59.706Z,2.10
2022-08-05T15:03:34.180Z,2.30
2022-08-05T15:06:15.058Z,2.10
2022-08-05T15:09:01.309Z,2.00
2022-08-05T15:11:53.017Z,2.37
2022-08-05T15:14:34.578Z,1.80
2022-08-05T15:17:09.850Z,1.73
2022-08-05T15:19:56.330Z,2.00
2022-08-05T15:22:27.167Z,1.50
2022-08-05T15:24:56.727Z,0.80
2022-08-05T15:27:25.716Z,0.97
2022-08-05T15:29:54.283Z,0.80
2022-08-05T15:32:28.619Z,0.70
2022-08-05T15:34:57.073Z,0.60
2022-08-05T15:38:34.582Z,0.60
2022-08-05T15:41:03.072Z,0.70
2022-08-05T15:43:12.654Z,0.73
2022-08-05T15:45:47.435Z,1.07
2022-08-05T15:48:15.346Z,0.60
2022-08-05T15:50:43.823Z,0.80
2022-08-05T15:53:13.587Z,0.80
2022-08-05T15:56:01.474Z,0.90
2022-08-05T15:58:29.235Z,0.80
2022-08-05T16:01:16.574Z,0.80
2022-08-05T16:03:50.403Z,0.90
2022-08-05T16:06:20.130Z,0.70
2022-08-05T16:08:50.382Z,0.73
2022-08-05T16:11:18.526Z,0.90
2022-08-05T16:13:48.689Z,0.87
2022-08-05T16:16:25.280Z,1.10
2022-08-05T16:18:53.063Z,0.63
2022-08-05T16:21:20.545Z,0.80
2022-08-05T16:23:53.922Z,0.70
2022-08-05T16:26:26.513Z,0.63
2022-08-05T16:28:55.063Z,0.70
2022-08-05T16:31:22.582Z,0.87
2022-08-05T16:33:52.106Z,0.70
2022-08-05T16:36:23.933Z,0.90
2022-08-05T16:38:54.337Z,0.90
2022-08-05T16:42:12.741Z,0.80
2022-08-05T16:44:11.663Z,0.60
2022-08-05T16:46:41.064Z,0.70
2022-08-05T16:49:10.086Z,0.70
2022-08-05T16:51:42.864Z,0.90
2022-08-05T16:54:25.853Z,0.90
2022-08-05T16:56:56.081Z,0.80
2022-08-05T16:59:23.267Z,1.03
2022-08-05T17:01:53.671Z,0.73
2022-08-05T17:04:26.369Z,0.70
2022-08-05T17:06:55.356Z,0.80
2022-08-05T17:09:22.874Z,0.80
2022-08-05T17:11:55.957Z,0.90
2022-08-05T17:14:37.632Z,0.80
2022-08-05T17:17:09.295Z,0.87
2022-08-05T17:19:45.594Z,0.87
2022-08-05T17:22:24.735Z,0.73
2022-08-05T17:24:57.412Z,0.80
2022-08-05T17:27:33.839Z,0.90
2022-08-05T17:30:11.832Z,1.20
2022-08-05T17:32:46.148Z,1.00
2022-08-05T17:35:15.696Z,1.10
2022-08-05T17:37:48.615Z,2.20
2022-08-05T17:40:18.141Z,0.70
2022-08-05T17:42:51.829Z,0.90
2022-08-05T17:45:25.162Z,0.80
2022-08-05T17:48:07.655Z,0.80
2022-08-05T17:50:34.688Z,0.80
2022-08-05T17:53:04.665Z,0.87
2022-08-05T17:55:38.368Z,0.90
2022-08-05T17:58:13.213Z,0.90
2022-08-05T18:00:47.120Z,1.00
2022-08-05T18:03:48.434Z,0.70
2022-08-05T18:06:12.063Z,0.80
2022-08-05T18:08:46.098Z,0.90
2022-08-05T18:11:24.294Z,0.90
2022-08-05T18:14:04.171Z,0.97
2022-08-05T18:16:33.486Z,0.70
2022-08-05T18:19:00.821Z,0.77
2022-08-05T18:22:07.028Z,0.77
2022-08-05T18:24:14.856Z,0.90
2022-08-05T18:26:42.054Z,0.67
2022-08-05T18:29:10.993Z,0.70
2022-08-05T18:31:38.258Z,0.70
2022-08-05T18:34:12.276Z,0.80
2022-08-05T18:36:41.352Z,0.90
2022-08-05T18:39:42.566Z,0.90
2022-08-05T18:42:03.598Z,0.73
2022-08-05T18:44:51.855Z,0.80
2022-08-05T18:47:22.770Z,0.80
2022-08-05T18:50:12.521Z,0.70
2022-08-05T18:52:50.502Z,1.00
2022-08-05T18:55:18.933Z,1.20
2022-08-05T18:57:53.458Z,1.10
2022-08-05T19:00:28.420Z,1.00
2022-08-05T19:03:03.334Z,0.70
2022-08-05T19:06:13.166Z,0.97
2022-08-05T19:08:19.900Z,0.90
2022-08-05T19:10:49.968Z,1.00
2022-08-05T19:13:17.744Z,0.73
2022-08-05T19:15:59.374Z,0.80
2022-08-05T19:18:30.585Z,0.80
2022-08-05T19:20:59.533Z,0.90
2022-08-05T19:24:06.210Z,0.70
2022-08-05T19:26:14.531Z,1.40
2022-08-05T19:28:42.347Z,0.77
2022-08-05T19:31:17.977Z,0.70
2022-08-05T19:33:55.666Z,0.70
2022-08-05T19:36:29.267Z,0.90
2022-08-05T19:39:00.529Z,0.80
2022-08-05T19:41:58.013Z,0.80
2022-08-05T19:44:18.523Z,0.90
2022-08-05T19:46:45.842Z,0.67
2022-08-05T19:49:16.908Z,0.73
2022-08-05T19:52:04.767Z,0.80
2022-08-05T19:54:34.674Z,0.87
2022-08-05T19:57:08.667Z,0.80
2022-08-05T20:00:00.881Z,0.70
2022-08-05T20:02:27.713Z,1.20
2022-08-05T20:04:58.875Z,0.87
2022-08-05T20:07:46.887Z,0.77
2022-08-05T20:10:16.464Z,0.80
2022-08-05T20:12:48.299Z,1.00
2022-08-05T20:15:48.252Z,0.90
2022-08-05T20:18:10.397Z,1.10
2022-08-05T20:20:55.069Z,1.00
2022-08-05T20:23:40.526Z,1.00
2022-08-05T20:26:15.891Z,1.00
2022-08-05T20:28:46.148Z,1.00
2022-08-05T20:31:14.375Z,1.00
2022-08-05T20:33:45.000Z,1.40
2022-08-05T20:36:14.375Z,1.10
2022-08-05T20:38:54.380Z,1.00
2022-08-05T20:41:44.086Z,1.20
2022-08-05T20:44:29.707Z,1.20
2022-08-05T20:47:03.304Z,1.20
2022-08-05T20:49:37.951Z,1.00
2022-08-05T20:52:07.757Z,1.10
2022-08-05T20:54:58.881Z,1.30
2022-08-05T20:57:42.131Z,1.50
2022-08-05T21:00:36.386Z,1.50
2022-08-05T21:03:06.954Z,1.27
2022-08-05T21:05:47.824Z,0.90
2022-08-05T21:08:27.994Z,1.00
2022-08-05T21:11:09.894Z,32.90
2022-08-05T21:13:48.354Z,3.80
2022-08-05T21:16:30.184Z,2.47
2022-08-05T21:19:00.668Z,5.57
2022-08-05T21:21:39.606Z,4.93
2022-08-05T21:24:13.515Z,6.10
2022-08-05T21:26:44.995Z,7.00
2022-08-05T21:29:15.726Z,4.53
2022-08-05T21:31:43.772Z,4.00
2022-08-05T21:34:11.490Z,4.50
2022-08-05T21:36:39.451Z,2.83
2022-08-05T21:39:10.386Z,2.60
2022-08-05T21:41:41.977Z,3.37
2022-08-05T21:44:20.422Z,2.90
2022-08-05T21:46:54.102Z,1.90
2022-08-05T21:50:00.030Z,2.60
2022-08-05T21:52:21.813Z,3.03
2022-08-05T21:54:57.320Z,2.10
2022-08-05T21:57:32.586Z,1.40
2022-08-05T22:00:06.336Z,1.60
2022-08-05T22:02:41.506Z,1.93
2022-08-05T22:05:11.294Z,1.90
2022-08-05T22:07:40.052Z,1.90
2022-08-05T22:10:27.348Z,2.40
2022-08-05T22:13:08.762Z,1.50
2022-08-05T22:16:02.728Z,1.70
2022-08-05T22:18:34.175Z,1.80
2022-08-05T22:21:04.669Z,1.70
2022-08-05T22:24:01.325Z,1.80
2022-08-05T22:26:49.800Z,3.03
2022-08-05T22:29:18.781Z,7.50
2022-08-05T22:31:55.231Z,1.70
2022-08-05T22:34:28.643Z,1.80
2022-08-05T22:36:58.457Z,1.73
2022-08-05T22:39:33.459Z,1.70
2022-08-05T22:42:10.152Z,2.00
2022-08-05T22:44:47.037Z,1.60
2022-08-05T22:47:29.857Z,1.80
2022-08-05T22:50:19.893Z,1.80
2022-08-05T22:52:48.253Z,1.53
2022-08-05T22:55:19.419Z,1.40
2022-08-05T22:57:52.618Z,1.60
2022-08-05T23:00:21.804Z,1.67
2022-08-05T23:02:50.722Z,1.53
2022-08-05T23:05:22.254Z,1.50
2022-08-05T23:07:51.150Z,1.23
2022-08-05T23:10:20.976Z,1.70
2022-08-05T23:12:55.173Z,1.40
2022-08-05T23:15:29.989Z,1.33
2022-08-05T23:18:11.355Z,1.73
2022-08-05T23:20:39.614Z,1.30
2022-08-05T23:23:08.227Z,1.57
2022-08-05T23:25:53.093Z,1.50
2022-08-05T23:28:29.168Z,1.60
2022-08-05T23:31:16.177Z,1.20
2022-08-05T23:34:06.194Z,1.63
2022-08-05T23:36:40.254Z,1.80
2022-08-05T23:39:17.397Z,1.83
2022-08-05T23:41:51.447Z,1.60
2022-08-05T23:44:19.758Z,2.17
2022-08-05T23:46:50.011Z,2.10
2022-08-05T23:49:20.129Z,2.10
2022-08-05T23:52:11.045Z,2.20
2022-08-05T23:54:38.848Z,2.50
2022-08-05T23:57:07.573Z,2.80
